West Point, Virginia
Current Conditions -  °F | °C
As of 12:35 PM on Wednesday 26 Nov 2014 (Local Time) from KFYJ Reporting Station
Overcast Overcast  
Wind Chill: 38°   Ceiling: 1000
Heat Index: 44°   Visibility: 7mi
Dew Point: 41°   Wind: 10mph
Humidity: 89%   Direction: 360°N
Pressure: 29.86"   Gusts: 20mph
Location:  37.53°N, 76.8°W
Report Text: KFYJ 261735Z AUTO 36009G17KT 330V030 7SM BKN010 OVC015 07/05 A2986 RMK AO2 P0006 T00650048
Loading
Personal Weather Stations






























Interactive Weather Map New forecast layout! Learn more

10-Day Weather Forecast

Advertisements
Track Severe Weather on mobile